createdAt,value
2022-12-09T00:01:10.756Z,11.60
2022-12-09T00:03:38.043Z,11.20
2022-12-09T00:06:15.023Z,11.80
2022-12-09T00:08:42.195Z,7.60
2022-12-09T00:11:09.522Z,14.40
2022-12-09T00:13:36.493Z,9.00
2022-12-09T00:16:12.631Z,14.20
2022-12-09T00:18:40.117Z,15.10
2022-12-09T00:21:30.708Z,10.90
2022-12-09T00:23:58.661Z,18.60
2022-12-09T00:26:26.409Z,21.40
2022-12-09T00:28:53.695Z,9.10
2022-12-09T00:31:25.674Z,12.30
2022-12-09T00:33:54.623Z,8.60
2022-12-09T00:36:22.073Z,9.80
2022-12-09T00:38:49.676Z,12.70
2022-12-09T00:41:17.076Z,13.20
2022-12-09T00:43:45.582Z,10.80
2022-12-09T00:46:12.897Z,10.40
2022-12-09T00:48:40.714Z,8.00
2022-12-09T00:51:08.887Z,6.50
2022-12-09T00:53:35.859Z,10.90
2022-12-09T00:56:03.206Z,9.10
2022-12-09T00:58:30.199Z,6.70
2022-12-09T01:00:57.474Z,6.10
2022-12-09T01:03:24.981Z,8.30
2022-12-09T01:05:52.069Z,6.70
2022-12-09T01:08:19.394Z,5.30
2022-12-09T01:10:46.478Z,4.10
2022-12-09T01:13:13.936Z,5.50
2022-12-09T01:15:41.076Z,8.00
2022-12-09T01:18:08.127Z,6.90
2022-12-09T01:20:35.495Z,7.00
2022-12-09T01:23:02.731Z,6.80
2022-12-09T01:25:29.774Z,5.10
2022-12-09T01:27:56.684Z,5.30
2022-12-09T01:30:23.895Z,6.30
2022-12-09T01:32:51.131Z,5.20
2022-12-09T01:35:18.325Z,8.10
2022-12-09T01:37:45.322Z,5.60
2022-12-09T01:40:17.102Z,7.90
2022-12-09T01:42:44.341Z,7.70
2022-12-09T01:45:21.335Z,7.90
2022-12-09T01:47:57.072Z,2.90
2022-12-09T01:50:24.696Z,5.00
2022-12-09T01:52:51.713Z,6.50
2022-12-09T01:55:19.071Z,5.60
2022-12-09T01:57:46.624Z,4.70
2022-12-09T02:00:14.496Z,9.10
2022-12-09T02:02:45.543Z,7.00
2022-12-09T02:05:13.123Z,3.50
2022-12-09T02:07:42.120Z,7.30
2022-12-09T02:10:15.431Z,5.00
2022-12-09T02:12:53.938Z,4.90
2022-12-09T02:15:26.135Z,5.40
2022-12-09T02:18:22.978Z,4.40
2022-12-09T02:21:04.617Z,6.20
2022-12-09T02:23:40.098Z,7.50
2022-12-09T02:26:36.967Z,4.30
2022-12-09T02:29:23.057Z,4.70
2022-12-09T02:32:26.071Z,5.30
2022-12-09T02:35:18.576Z,8.20
2022-12-09T02:37:52.544Z,9.40
2022-12-09T02:40:30.843Z,7.70
2022-12-09T02:42:58.225Z,6.50
2022-12-09T02:45:25.564Z,4.80
2022-12-09T02:47:53.190Z,6.20
2022-12-09T02:50:25.608Z,6.90
2022-12-09T02:52:53.445Z,5.60
2022-12-09T02:55:21.055Z,6.10
2022-12-09T02:57:51.137Z,12.20
2022-12-09T03:00:20.372Z,9.90
2022-12-09T03:02:49.380Z,7.10
2022-12-09T03:05:26.097Z,5.30
2022-12-09T03:08:08.310Z,11.80
2022-12-09T03:11:02.235Z,9.40
2022-12-09T03:16:02.579Z,7.30
2022-12-09T03:20:56.228Z,9.30
2022-12-09T03:23:24.520Z,8.00
2022-12-09T03:25:52.486Z,8.50
2022-12-09T03:28:37.741Z,11.70
2022-12-09T03:31:06.160Z,11.40
2022-12-09T03:33:33.536Z,8.40
2022-12-09T03:36:02.551Z,13.60
2022-12-09T03:38:33.214Z,5.10
2022-12-09T03:41:11.424Z,13.60
2022-12-09T03:43:40.648Z,14.70
2022-12-09T03:46:07.673Z,8.50
2022-12-09T03:48:34.713Z,7.50
2022-12-09T03:51:07.408Z,11.40
2022-12-09T03:53:39.688Z,4.80
2022-12-09T03:56:12.959Z,8.50
2022-12-09T03:58:40.473Z,9.90
2022-12-09T04:01:07.909Z,9.70
2022-12-09T04:03:35.644Z,9.40
2022-12-09T04:06:03.166Z,10.50
2022-12-09T04:08:30.522Z,7.00
2022-12-09T04:10:57.542Z,8.90
2022-12-09T04:13:24.539Z,13.20
2022-12-09T04:15:51.409Z,13.00
2022-12-09T04:18:18.731Z,10.60
2022-12-09T04:20:46.021Z,7.70
2022-12-09T04:23:13.394Z,7.20
2022-12-09T04:25:40.502Z,3.70
2022-12-09T04:28:08.116Z,8.30
2022-12-09T04:30:35.121Z,9.90
2022-12-09T04:33:02.223Z,14.20
2022-12-09T04:35:29.342Z,8.40
2022-12-09T04:37:56.151Z,13.60
2022-12-09T04:40:24.240Z,10.20
2022-12-09T04:42:51.992Z,12.50
2022-12-09T04:45:19.124Z,12.20
2022-12-09T04:47:46.087Z,8.50
2022-12-09T04:50:14.196Z,9.40
2022-12-09T04:52:41.907Z,11.40
2022-12-09T04:55:10.008Z,7.40
2022-12-09T04:57:37.045Z,9.80
2022-12-09T05:00:05.652Z,11.10
2022-12-09T05:02:33.343Z,9.60
2022-12-09T05:05:03.842Z,10.20
2022-12-09T05:07:33.952Z,14.70
2022-12-09T05:10:01.486Z,11.60
2022-12-09T05:12:28.692Z,8.20
2022-12-09T05:14:56.294Z,7.90
2022-12-09T05:17:23.384Z,15.90
2022-12-09T05:19:51.367Z,11.30
2022-12-09T05:22:18.941Z,14.50
2022-12-09T05:24:47.552Z,12.20
2022-12-09T05:27:15.035Z,9.70
2022-12-09T05:29:41.983Z,11.50
2022-12-09T05:32:09.261Z,16.70
2022-12-09T05:34:36.626Z,13.50
2022-12-09T05:37:03.754Z,11.40
2022-12-09T05:39:31.034Z,10.70
2022-12-09T05:41:58.269Z,13.50
2022-12-09T05:44:25.653Z,12.00
2022-12-09T05:46:52.842Z,14.70
2022-12-09T05:49:20.357Z,12.50
2022-12-09T05:51:47.839Z,15.10
2022-12-09T05:54:14.934Z,16.10
2022-12-09T05:56:46.355Z,14.00
2022-12-09T06:01:42.237Z,12.10
2022-12-09T06:04:09.475Z,11.80
2022-12-09T06:06:37.037Z,8.20
2022-12-09T06:09:04.485Z,16.10
2022-12-09T06:11:32.965Z,16.60
2022-12-09T06:14:00.374Z,13.60
2022-12-09T06:16:28.087Z,17.40
2022-12-09T06:18:55.424Z,16.40
2022-12-09T06:21:22.766Z,8.60
2022-12-09T06:23:50.710Z,13.20
2022-12-09T06:26:26.131Z,13.50
2022-12-09T06:28:53.848Z,4.00
2022-12-09T06:31:21.473Z,16.00
2022-12-09T06:33:58.409Z,13.20
2022-12-09T06:36:27.898Z,11.60
2022-12-09T06:38:55.478Z,11.00
2022-12-09T06:41:22.700Z,8.60
2022-12-09T06:43:50.219Z,10.80
2022-12-09T06:46:19.666Z,7.80
2022-12-09T06:48:47.375Z,14.60
2022-12-09T06:51:16.313Z,7.60
2022-12-09T06:53:43.607Z,12.80
2022-12-09T06:56:12.553Z,12.30
2022-12-09T06:58:41.508Z,14.60
2022-12-09T07:01:16.087Z,12.90
2022-12-09T07:03:45.097Z,12.40
2022-12-09T07:06:32.180Z,13.90
2022-12-09T07:09:02.027Z,15.40
2022-12-09T07:11:29.490Z,11.80
2022-12-09T07:13:56.914Z,13.10
2022-12-09T07:16:24.665Z,8.80
2022-12-09T07:18:52.135Z,10.50
2022-12-09T07:21:20.759Z,12.20
2022-12-09T07:23:48.489Z,14.70
2022-12-09T07:26:16.981Z,13.60
2022-12-09T07:28:44.866Z,12.50
2022-12-09T07:31:22.769Z,13.20
2022-12-09T07:33:50.882Z,16.60
2022-12-09T07:36:21.215Z,14.00
2022-12-09T07:38:50.318Z,12.10
2022-12-09T07:41:20.437Z,13.00
2022-12-09T07:43:48.174Z,12.80
2022-12-09T07:46:16.528Z,10.90
2022-12-09T07:48:44.247Z,13.30
2022-12-09T07:51:11.485Z,14.20
2022-12-09T07:53:38.637Z,15.20
2022-12-09T07:56:07.944Z,12.80
2022-12-09T07:58:35.583Z,14.80
2022-12-09T08:01:10.227Z,15.80
2022-12-09T08:03:37.466Z,18.90
2022-12-09T08:06:04.944Z,14.40
2022-12-09T08:08:32.894Z,13.70
2022-12-09T08:11:11.364Z,13.10
2022-12-09T08:13:39.101Z,14.20
2022-12-09T08:16:07.802Z,22.70
2022-12-09T08:18:35.211Z,17.40
2022-12-09T08:21:19.715Z,15.60
2022-12-09T08:23:47.255Z,15.10
2022-12-09T08:26:16.048Z,15.40
2022-12-09T08:28:43.206Z,16.70
2022-12-09T08:31:12.636Z,18.90
2022-12-09T08:33:40.570Z,17.90
2022-12-09T08:36:14.514Z,16.00
2022-12-09T08:38:42.024Z,20.70
2022-12-09T08:41:16.889Z,22.80
2022-12-09T08:43:44.338Z,17.90
2022-12-09T08:46:11.956Z,16.70
2022-12-09T08:48:40.643Z,22.10
2022-12-09T08:51:09.207Z,26.00
2022-12-09T08:53:36.404Z,27.40
2022-12-09T08:56:14.799Z,28.30
2022-12-09T08:58:42.522Z,21.20
2022-12-09T09:01:36.076Z,18.60
2022-12-09T09:04:11.573Z,27.10
2022-12-09T09:06:41.400Z,24.70
2022-12-09T09:09:09.466Z,35.00
2022-12-09T09:11:37.441Z,17.60
2022-12-09T09:14:05.839Z,18.20
2022-12-09T09:16:33.154Z,20.60
2022-12-09T09:19:01.175Z,23.60
2022-12-09T09:21:28.512Z,25.70
2022-12-09T09:23:55.608Z,20.00
2022-12-09T09:26:26.158Z,23.20
2022-12-09T09:28:54.454Z,19.70
2022-12-09T09:31:23.023Z,20.50
2022-12-09T09:33:50.782Z,9.30
2022-12-09T09:36:21.067Z,9.70
2022-12-09T09:38:49.283Z,15.80
2022-12-09T09:41:21.045Z,15.30
2022-12-09T09:43:48.468Z,18.00
2022-12-09T09:46:19.870Z,13.90
2022-12-09T09:48:47.132Z,18.60
2022-12-09T09:51:17.155Z,20.10
2022-12-09T09:53:44.479Z,24.40
2022-12-09T09:56:31.976Z,19.80
2022-12-09T09:59:25.694Z,18.40
2022-12-09T10:02:08.976Z,21.40
2022-12-09T10:04:46.097Z,23.90
2022-12-09T10:07:34.497Z,24.50
2022-12-09T10:10:20.754Z,27.90
2022-12-09T10:12:57.760Z,9.20
2022-12-09T10:15:31.796Z,15.70
2022-12-09T10:18:19.467Z,21.00
2022-12-09T10:20:47.139Z,17.70
2022-12-09T10:23:15.930Z,17.20
2022-12-09T10:25:55.981Z,20.50
2022-12-09T10:28:33.295Z,18.50
2022-12-09T10:31:00.765Z,18.30
2022-12-09T10:33:39.085Z,14.20
2022-12-09T10:36:07.796Z,14.00
2022-12-09T10:38:37.657Z,20.00
2022-12-09T10:41:15.925Z,16.90
2022-12-09T10:43:44.118Z,15.60
2022-12-09T10:46:24.311Z,21.10
2022-12-09T10:48:56.441Z,18.30
2022-12-09T10:51:31.948Z,16.10
2022-12-09T10:54:01.863Z,16.20
2022-12-09T10:56:30.920Z,12.10
2022-12-09T10:59:13.746Z,15.30
2022-12-09T11:01:54.810Z,18.60
2022-12-09T11:04:36.099Z,21.70
2022-12-09T11:07:05.411Z,17.70
2022-12-09T11:09:38.823Z,17.80
2022-12-09T11:12:07.762Z,14.60
2022-12-09T11:14:42.130Z,21.90
2022-12-09T11:17:16.653Z,21.60
2022-12-09T11:19:46.354Z,22.70
2022-12-09T11:22:40.803Z,24.10
2022-12-09T11:25:11.727Z,22.20
2022-12-09T11:27:50.166Z,23.20
2022-12-09T11:30:19.131Z,17.80
2022-12-09T11:33:01.208Z,20.40
2022-12-09T11:35:45.729Z,25.40
2022-12-09T11:38:28.418Z,17.30
2022-12-09T11:41:00.083Z,23.00
2022-12-09T11:43:34.802Z,27.00
2022-12-09T11:46:05.155Z,27.00
2022-12-09T11:48:37.321Z,20.90
2022-12-09T11:51:07.205Z,22.10
2022-12-09T11:53:35.074Z,21.10
2022-12-09T11:56:05.655Z,29.70
2022-12-09T11:58:49.290Z,36.10
2022-12-09T12:01:20.736Z,31.30
2022-12-09T12:03:55.213Z,39.20
2022-12-09T12:06:30.244Z,28.50
2022-12-09T12:09:06.467Z,22.20
2022-12-09T12:11:38.431Z,29.80
2022-12-09T12:16:50.587Z,24.90
2022-12-09T12:19:26.851Z,22.80
2022-12-09T12:22:31.662Z,22.90
2022-12-09T12:25:17.770Z,19.70
2022-12-09T12:27:54.962Z,16.90
2022-12-09T12:30:24.526Z,20.30
2022-12-09T12:35:58.914Z,16.50
2022-12-09T12:39:00.404Z,19.80
2022-12-09T12:41:33.286Z,14.80
2022-12-09T12:44:22.720Z,22.50
2022-12-09T12:46:54.906Z,16.10
2022-12-09T12:49:31.686Z,20.80
2022-12-09T12:52:47.386Z,15.30
2022-12-09T12:55:17.508Z,18.70
2022-12-09T12:57:50.540Z,22.10
2022-12-09T13:00:22.170Z,20.00
2022-12-09T13:03:09.000Z,19.90
2022-12-09T13:05:38.271Z,16.30
2022-12-09T13:08:09.304Z,10.00
2022-12-09T13:10:39.939Z,22.30
2022-12-09T13:13:35.712Z,16.10
2022-12-09T13:16:23.564Z,19.40
2022-12-09T13:18:50.594Z,20.00
2022-12-09T13:21:17.644Z,23.30
2022-12-09T13:24:08.754Z,15.10
2022-12-09T13:26:50.645Z,11.50
2022-12-09T13:29:42.704Z,14.00
2022-12-09T13:32:48.764Z,21.50
2022-12-09T13:35:37.782Z,12.50
2022-12-09T13:38:04.761Z,17.40
2022-12-09T13:40:35.478Z,18.50
2022-12-09T13:43:02.386Z,22.10
2022-12-09T13:45:45.035Z,18.90
2022-12-09T13:48:16.893Z,20.60
2022-12-09T13:51:09.135Z,31.90
2022-12-09T13:53:45.817Z,23.50
2022-12-09T13:56:16.646Z,24.00
2022-12-09T13:59:11.295Z,29.70
2022-12-09T14:01:41.669Z,23.80
2022-12-09T14:04:16.497Z,15.00
2022-12-09T14:06:46.515Z,28.80
2022-12-09T14:09:41.414Z,23.10
2022-12-09T14:12:27.275Z,24.40
2022-12-09T14:15:25.576Z,27.30
2022-12-09T14:18:03.703Z,21.60
2022-12-09T14:20:39.006Z,21.10
2022-12-09T14:23:12.141Z,15.30
2022-12-09T14:25:50.956Z,21.00
2022-12-09T14:28:33.916Z,22.60
2022-12-09T14:31:06.576Z,21.50
2022-12-09T14:33:37.706Z,22.00
2022-12-09T14:36:13.940Z,23.10
2022-12-09T14:39:25.739Z,26.50
2022-12-09T14:41:56.618Z,23.40
2022-12-09T14:44:42.972Z,22.10
2022-12-09T14:47:16.985Z,24.60
2022-12-09T14:49:49.240Z,21.80
2022-12-09T14:52:30.741Z,23.90
2022-12-09T14:54:59.191Z,23.10
2022-12-09T14:57:33.330Z,17.20
2022-12-09T15:00:00.296Z,22.40
2022-12-09T15:02:31.308Z,25.70
2022-12-09T15:05:00.523Z,19.60
2022-12-09T15:07:31.864Z,23.20
2022-12-09T15:10:03.520Z,19.00
2022-12-09T15:12:35.378Z,24.10
2022-12-09T15:15:25.488Z,21.80
2022-12-09T15:17:58.451Z,20.90
2022-12-09T15:20:28.723Z,20.30
2022-12-09T15:23:04.202Z,21.10
2022-12-09T15:25:31.163Z,15.30
2022-12-09T15:28:12.855Z,18.30
2022-12-09T15:30:40.208Z,14.70
2022-12-09T15:33:19.772Z,16.50
2022-12-09T15:35:56.618Z,15.90
2022-12-09T15:38:25.006Z,11.20
2022-12-09T15:41:11.723Z,19.10
2022-12-09T15:43:38.779Z,15.40
2022-12-09T15:46:06.015Z,13.60
2022-12-09T15:48:35.728Z,12.90
2022-12-09T15:51:06.210Z,14.00
2022-12-09T15:53:36.552Z,15.00
2022-12-09T15:56:08.661Z,15.30
2022-12-09T15:58:39.007Z,15.60
2022-12-09T16:01:06.316Z,10.80
2022-12-09T16:03:34.214Z,7.90
2022-12-09T16:06:05.499Z,13.80
2022-12-09T16:08:38.220Z,13.90
2022-12-09T16:11:05.379Z,16.20
2022-12-09T16:13:32.504Z,10.50
2022-12-09T16:16:01.014Z,10.90
2022-12-09T16:18:46.463Z,9.80
2022-12-09T16:21:16.425Z,13.20
2022-12-09T16:23:44.148Z,9.70
2022-12-09T16:26:23.070Z,9.80
2022-12-09T16:29:01.288Z,12.70
2022-12-09T16:31:28.420Z,7.10
2022-12-09T16:33:55.989Z,11.50
2022-12-09T16:36:31.360Z,11.90
2022-12-09T16:39:07.700Z,11.00
2022-12-09T16:41:53.185Z,9.40
2022-12-09T16:44:22.266Z,12.50
2022-12-09T16:46:49.222Z,6.20
2022-12-09T16:49:16.153Z,9.90
2022-12-09T16:51:43.324Z,7.40
2022-12-09T16:54:19.767Z,9.10
2022-12-09T16:56:47.844Z,10.20
2022-12-09T16:59:14.737Z,8.70
2022-12-09T17:01:41.770Z,8.70
2022-12-09T17:04:18.178Z,8.90
2022-12-09T17:06:45.603Z,10.30
2022-12-09T17:09:13.525Z,11.00
2022-12-09T17:11:47.036Z,10.50
2022-12-09T17:14:15.849Z,11.20
2022-12-09T17:16:44.174Z,7.00
2022-12-09T17:19:12.982Z,6.60
2022-12-09T17:21:40.051Z,7.50
2022-12-09T17:24:08.657Z,12.00
2022-12-09T17:26:35.659Z,5.60
2022-12-09T17:29:04.861Z,5.60
2022-12-09T17:31:31.811Z,7.30
2022-12-09T17:33:58.809Z,4.70
2022-12-09T17:36:25.688Z,6.00
2022-12-09T17:38:55.499Z,7.50
2022-12-09T17:41:23.989Z,6.80
2022-12-09T17:43:51.132Z,7.40
2022-12-09T17:46:18.347Z,9.00
2022-12-09T17:48:45.738Z,8.50
2022-12-09T17:51:14.692Z,9.30
2022-12-09T17:53:42.636Z,10.10
2022-12-09T17:56:10.158Z,7.50
2022-12-09T17:58:37.168Z,8.50
2022-12-09T18:01:04.611Z,5.60
2022-12-09T18:03:55.045Z,8.20
2022-12-09T18:06:18.726Z,9.80
2022-12-09T18:08:45.823Z,7.60
2022-12-09T18:11:12.716Z,9.90
2022-12-09T18:13:40.219Z,4.80
2022-12-09T18:16:11.349Z,8.30
2022-12-09T18:18:39.744Z,7.00
2022-12-09T18:21:13.681Z,5.40
2022-12-09T18:23:42.624Z,10.50
2022-12-09T18:26:13.731Z,10.60
2022-12-09T18:28:40.936Z,9.70
2022-12-09T18:31:09.615Z,10.30
2022-12-09T18:33:37.742Z,7.10
2022-12-09T18:36:09.141Z,9.30
2022-12-09T18:38:36.452Z,10.80
2022-12-09T18:41:04.222Z,11.00
2022-12-09T18:43:33.567Z,11.50
2022-12-09T18:46:25.496Z,7.10
2022-12-09T18:49:00.739Z,5.30
2022-12-09T18:51:28.054Z,15.00
2022-12-09T18:53:56.610Z,9.00
2022-12-09T18:56:23.513Z,9.00
2022-12-09T18:59:06.004Z,6.40
2022-12-09T19:01:34.442Z,8.00
2022-12-09T19:04:02.430Z,8.70
2022-12-09T19:06:31.769Z,7.20
2022-12-09T19:09:06.555Z,9.00
2022-12-09T19:11:34.721Z,10.30
2022-12-09T19:14:01.800Z,9.80
2022-12-09T19:16:29.028Z,14.30
2022-12-09T19:18:58.322Z,20.30
2022-12-09T19:21:27.408Z,9.10
2022-12-09T19:23:54.868Z,7.30
2022-12-09T19:26:23.754Z,10.10
2022-12-09T19:28:58.795Z,4.80
2022-12-09T19:31:31.572Z,7.80
2022-12-09T19:34:00.702Z,8.70
2022-12-09T19:36:28.623Z,5.10
2022-12-09T19:38:55.988Z,6.20
2022-12-09T19:41:22.916Z,9.20
2022-12-09T19:43:54.897Z,9.90
2022-12-09T19:46:22.070Z,4.90
2022-12-09T19:48:49.098Z,9.10
2022-12-09T19:51:17.376Z,11.40
2022-12-09T19:53:44.633Z,9.20
2022-12-09T19:56:13.487Z,7.30
2022-12-09T19:58:41.072Z,9.10
2022-12-09T20:01:18.424Z,10.50
2022-12-09T20:03:46.883Z,7.90
2022-12-09T20:06:16.181Z,6.80
2022-12-09T20:08:43.397Z,7.70
2022-12-09T20:11:13.561Z,7.90
2022-12-09T20:13:40.556Z,7.90
2022-12-09T20:16:09.195Z,9.40
2022-12-09T20:18:40.171Z,10.00
2022-12-09T20:21:08.886Z,10.20
2022-12-09T20:23:36.511Z,12.90
2022-12-09T20:26:07.834Z,12.50
2022-12-09T20:28:35.535Z,16.20
2022-12-09T20:31:07.922Z,9.80
2022-12-09T20:33:35.178Z,13.20
2022-12-09T20:36:10.424Z,4.50
2022-12-09T20:38:37.327Z,10.00
2022-12-09T20:41:05.643Z,10.00
2022-12-09T20:43:39.435Z,12.30
2022-12-09T20:46:11.117Z,12.00
2022-12-09T20:48:38.929Z,5.50
2022-12-09T20:51:07.226Z,7.60
2022-12-09T20:53:35.381Z,13.50
2022-12-09T20:56:03.178Z,6.20
2022-12-09T20:58:30.825Z,24.40
2022-12-09T21:01:08.025Z,19.00
2022-12-09T21:03:35.132Z,9.80
2022-12-09T21:06:02.205Z,13.80
2022-12-09T21:08:31.647Z,12.20
